createdAt,value
2019-05-01T00:00:25.678Z,21.80
2019-05-01T00:02:52.758Z,21.80
2019-05-01T00:05:19.848Z,21.80
2019-05-01T00:07:46.919Z,21.80
2019-05-01T00:10:13.986Z,21.80
2019-05-01T00:12:41.028Z,21.80
2019-05-01T00:15:08.139Z,21.80
2019-05-01T00:17:35.194Z,21.80
2019-05-01T00:20:02.304Z,21.80
2019-05-01T00:22:29.355Z,21.70
2019-05-01T00:24:56.432Z,21.80
2019-05-01T00:27:23.479Z,21.70
2019-05-01T00:29:50.576Z,21.70
2019-05-01T00:32:17.691Z,21.70
2019-05-01T00:34:44.740Z,21.70
2019-05-01T00:37:11.818Z,21.70
2019-05-01T00:39:38.863Z,21.70
2019-05-01T00:42:05.942Z,21.70
2019-05-01T00:44:32.996Z,21.80
2019-05-01T00:47:00.176Z,21.80
2019-05-01T00:49:27.405Z,21.80
2019-05-01T00:51:54.455Z,21.80
2019-05-01T00:54:21.522Z,21.80
2019-05-01T00:56:48.584Z,21.80
2019-05-01T00:59:15.723Z,21.80
2019-05-01T01:01:42.848Z,21.80
2019-05-01T01:04:09.955Z,21.80
2019-05-01T01:06:37.046Z,21.80
2019-05-01T01:09:04.088Z,21.80
2019-05-01T01:11:31.239Z,21.80
2019-05-01T01:13:58.298Z,21.80
2019-05-01T01:16:25.377Z,21.80
2019-05-01T01:18:52.449Z,21.80
2019-05-01T01:21:19.501Z,21.80
2019-05-01T01:23:46.593Z,21.80
2019-05-01T01:26:13.906Z,21.80
2019-05-01T01:28:41.025Z,21.80
2019-05-01T01:31:08.094Z,21.80
2019-05-01T01:33:35.255Z,21.80
2019-05-01T01:36:02.316Z,21.80
2019-05-01T01:38:29.375Z,21.80
2019-05-01T01:40:56.455Z,21.80
2019-05-01T01:43:23.506Z,21.80
2019-05-01T01:45:50.579Z,21.80
2019-05-01T01:48:17.704Z,21.80
2019-05-01T01:50:44.906Z,21.80
2019-05-01T01:53:12.009Z,21.80
2019-05-01T01:55:39.121Z,21.80
2019-05-01T01:58:06.183Z,21.80
2019-05-01T02:00:33.242Z,21.80
2019-05-01T02:03:00.329Z,21.80
2019-05-01T02:05:27.377Z,21.80
2019-05-01T02:07:54.446Z,21.80
2019-05-01T02:10:21.516Z,21.80
2019-05-01T02:12:48.661Z,21.90
2019-05-01T02:15:15.706Z,21.90
2019-05-01T02:17:42.789Z,21.80
2019-05-01T02:20:09.831Z,21.90
2019-05-01T02:22:36.923Z,21.80
2019-05-01T02:25:04.007Z,21.90
2019-05-01T02:27:31.083Z,21.80
2019-05-01T02:29:58.155Z,21.80
2019-05-01T02:32:25.204Z,21.80
2019-05-01T02:34:52.287Z,21.80
2019-05-01T02:37:19.332Z,21.80
2019-05-01T02:39:48.878Z,21.80
2019-05-01T02:42:15.924Z,21.80
2019-05-01T02:44:43.005Z,21.80
2019-05-01T02:47:10.179Z,21.80
2019-05-01T02:49:37.268Z,21.90
2019-05-01T02:52:04.310Z,21.90
2019-05-01T02:54:31.361Z,21.80
2019-05-01T02:56:58.449Z,21.80
2019-05-01T02:59:25.495Z,21.80
2019-05-01T03:01:52.563Z,21.80
2019-05-01T03:04:19.647Z,21.80
2019-05-01T03:06:46.706Z,21.80
2019-05-01T03:09:13.813Z,21.80
2019-05-01T03:11:40.893Z,21.80
2019-05-01T03:14:07.940Z,21.80
2019-05-01T03:16:35.001Z,21.80
2019-05-01T03:19:02.093Z,21.80
2019-05-01T03:21:29.218Z,21.80
2019-05-01T03:23:56.274Z,21.80
2019-05-01T03:26:23.455Z,21.80
2019-05-01T03:28:50.504Z,21.80
2019-05-01T03:31:17.578Z,21.80
2019-05-01T03:33:44.668Z,21.70
2019-05-01T03:36:11.722Z,21.70
2019-05-01T03:38:38.810Z,21.70
2019-05-01T03:41:05.857Z,21.70
2019-05-01T03:43:32.902Z,21.70
2019-05-01T03:45:59.981Z,21.70
2019-05-01T03:48:27.084Z,21.70
2019-05-01T03:50:54.168Z,21.70
2019-05-01T03:53:21.238Z,21.70
2019-05-01T03:55:48.386Z,21.70
2019-05-01T03:58:15.465Z,21.60
2019-05-01T04:00:42.520Z,21.70
2019-05-01T04:03:09.616Z,21.60
2019-05-01T04:05:36.682Z,21.70
2019-05-01T04:08:03.746Z,21.70
2019-05-01T04:10:30.897Z,21.70
2019-05-01T04:12:57.978Z,21.70
2019-05-01T04:15:27.785Z,21.70
2019-05-01T04:17:54.855Z,21.70
2019-05-01T04:20:21.954Z,21.70
2019-05-01T04:22:49.122Z,21.70
2019-05-01T04:25:16.228Z,21.70
2019-05-01T04:27:43.290Z,21.70
2019-05-01T04:30:10.355Z,21.70
2019-05-01T04:32:51.707Z,21.70
2019-05-01T04:35:06.236Z,21.70
2019-05-01T04:37:33.295Z,21.70
2019-05-01T04:40:00.364Z,21.70
2019-05-01T04:42:30.488Z,21.70
2019-05-01T04:44:57.741Z,21.70
2019-05-01T04:47:24.767Z,21.70
2019-05-01T04:49:51.853Z,21.70
2019-05-01T04:52:18.907Z,21.70
2019-05-01T04:54:45.999Z,21.80
2019-05-01T04:57:13.056Z,21.80
2019-05-01T04:59:40.149Z,21.80
2019-05-01T05:02:07.232Z,21.80
2019-05-01T05:04:34.963Z,21.80
2019-05-01T05:07:02.050Z,21.80
2019-05-01T05:09:29.091Z,21.80
2019-05-01T05:11:56.187Z,21.80
2019-05-01T05:14:23.326Z,21.80
2019-05-01T05:16:50.406Z,21.80
2019-05-01T05:19:17.493Z,21.80
2019-05-01T05:21:44.583Z,21.90
2019-05-01T05:24:11.645Z,21.90
2019-05-01T05:26:38.751Z,21.90
2019-05-01T05:29:05.869Z,21.90
2019-05-01T05:31:33.010Z,22.00
2019-05-01T05:34:00.101Z,22.00
2019-05-01T05:36:27.176Z,22.00
2019-05-01T05:38:54.230Z,21.90
2019-05-01T05:41:21.290Z,21.90
2019-05-01T05:43:48.403Z,21.90
2019-05-01T05:46:15.584Z,21.90
2019-05-01T05:48:42.736Z,22.00
2019-05-01T05:51:09.812Z,21.90
2019-05-01T05:53:36.936Z,22.00
2019-05-01T05:56:03.992Z,22.00
2019-05-01T05:58:31.115Z,22.00
2019-05-01T06:00:58.219Z,22.00
2019-05-01T06:03:31.276Z,22.00
2019-05-01T06:05:54.009Z,22.00
2019-05-01T06:08:21.132Z,22.00
2019-05-01T06:10:48.198Z,22.00
2019-05-01T06:13:17.958Z,22.00
2019-05-01T06:15:44.078Z,22.00
2019-05-01T06:18:11.146Z,22.00
2019-05-01T06:20:38.222Z,22.00
2019-05-01T06:23:05.317Z,22.00
2019-05-01T06:25:32.368Z,22.00
2019-05-01T06:27:59.451Z,22.00
2019-05-01T06:30:26.504Z,22.00
2019-05-01T06:32:53.551Z,22.00
2019-05-01T06:35:20.631Z,22.00
2019-05-01T06:37:47.741Z,22.00
2019-05-01T06:40:18.765Z,22.00
2019-05-01T06:42:45.683Z,22.00
2019-05-01T06:45:13.084Z,22.00
2019-05-01T06:47:43.106Z,22.00
2019-05-01T06:50:10.058Z,22.10
2019-05-01T06:52:37.184Z,22.10
2019-05-01T06:55:04.319Z,22.10
2019-05-01T06:57:31.409Z,22.10
2019-05-01T06:59:58.478Z,22.10
2019-05-01T07:02:25.594Z,22.10
2019-05-01T07:04:52.618Z,22.10
2019-05-01T07:07:25.071Z,22.10
2019-05-01T07:09:49.213Z,22.10
2019-05-01T07:12:17.232Z,22.10
2019-05-01T07:14:47.109Z,22.10
2019-05-01T07:17:14.713Z,22.10
2019-05-01T07:19:42.054Z,22.20
2019-05-01T07:22:09.142Z,22.20
2019-05-01T07:24:36.199Z,22.20
2019-05-01T07:27:03.275Z,22.20
2019-05-01T07:29:32.821Z,22.20
2019-05-01T07:32:01.693Z,22.30
2019-05-01T07:34:27.879Z,22.30
2019-05-01T07:36:54.957Z,22.30
2019-05-01T07:39:22.009Z,22.40
2019-05-01T07:41:49.141Z,22.40
2019-05-01T07:44:16.279Z,22.40
2019-05-01T07:46:43.351Z,22.50
2019-05-01T07:49:13.150Z,22.50
2019-05-01T07:51:42.424Z,22.50
2019-05-01T07:54:08.957Z,22.60
2019-05-01T07:56:36.329Z,22.50
2019-05-01T07:59:03.386Z,22.50
2019-05-01T08:01:30.465Z,22.40
2019-05-01T08:03:57.545Z,22.50
2019-05-01T08:06:24.604Z,22.50
2019-05-01T08:08:51.690Z,22.50
2019-05-01T08:11:18.790Z,22.50
2019-05-01T08:13:45.838Z,22.50
2019-05-01T08:16:12.895Z,22.50
2019-05-01T08:18:39.969Z,22.50
2019-05-01T08:21:07.164Z,22.50
2019-05-01T08:23:34.233Z,22.50
2019-05-01T08:26:04.005Z,22.50
2019-05-01T08:28:32.061Z,22.50
2019-05-01T08:30:58.846Z,22.60
2019-05-01T08:33:25.900Z,22.50
2019-05-01T08:35:52.980Z,22.60
2019-05-01T08:38:20.034Z,22.60
2019-05-01T08:40:50.663Z,22.50
2019-05-01T08:43:18.003Z,22.50
2019-05-01T08:45:44.885Z,22.60
2019-05-01T08:48:11.980Z,22.50
2019-05-01T08:50:39.064Z,22.50
2019-05-01T08:53:06.132Z,22.50
2019-05-01T08:55:33.219Z,22.50
2019-05-01T08:58:00.276Z,22.60
2019-05-01T09:00:30.995Z,22.50
2019-05-01T09:03:07.804Z,22.50
2019-05-01T09:05:28.731Z,22.50
2019-05-01T09:07:55.970Z,22.40
2019-05-01T09:10:30.456Z,22.40
2019-05-01T09:12:57.539Z,22.40
2019-05-01T09:15:24.604Z,22.30
2019-05-01T09:17:51.649Z,22.40
2019-05-01T09:20:18.735Z,22.40
2019-05-01T09:22:45.789Z,22.40
2019-05-01T09:25:12.987Z,22.40
2019-05-01T09:27:40.053Z,22.30
2019-05-01T09:30:07.215Z,22.30
2019-05-01T09:32:34.294Z,22.30
2019-05-01T09:35:01.368Z,22.30
2019-05-01T09:37:28.412Z,22.30
2019-05-01T09:39:55.466Z,22.40
2019-05-01T09:42:23.723Z,22.40
2019-05-01T09:44:51.313Z,22.40
2019-05-01T09:47:18.967Z,22.40
2019-05-01T09:49:48.729Z,22.40
2019-05-01T09:52:14.886Z,22.40
2019-05-01T09:54:46.760Z,22.40
2019-05-01T09:57:12.502Z,22.40
2019-05-01T09:59:39.539Z,22.40
2019-05-01T10:02:07.825Z,22.40
2019-05-01T10:04:35.453Z,22.50
2019-05-01T10:07:02.519Z,22.50
2019-05-01T10:09:29.631Z,22.50
2019-05-01T10:11:56.692Z,22.50
2019-05-01T10:14:23.741Z,22.50
2019-05-01T10:16:51.020Z,22.40
2019-05-01T10:19:18.058Z,22.40
2019-05-01T10:21:45.326Z,22.40
2019-05-01T10:24:12.371Z,22.40
2019-05-01T10:26:39.525Z,22.40
2019-05-01T10:29:06.568Z,22.40
2019-05-01T10:31:33.615Z,22.30
2019-05-01T10:34:02.805Z,22.30
2019-05-01T10:36:29.612Z,22.40
2019-05-01T10:38:56.692Z,22.30
2019-05-01T10:41:23.736Z,22.40
2019-05-01T10:43:50.848Z,22.30
2019-05-01T10:46:17.921Z,22.30
2019-05-01T10:48:45.049Z,22.30
2019-05-01T10:51:12.161Z,22.30
2019-05-01T10:53:39.322Z,22.30
2019-05-01T10:56:06.411Z,22.30
2019-05-01T10:58:33.484Z,22.30
2019-05-01T11:01:00.748Z,22.30
2019-05-01T11:03:27.805Z,22.30
2019-05-01T11:05:56.314Z,22.30
2019-05-01T11:08:23.690Z,22.30
2019-05-01T11:10:50.770Z,22.30
2019-05-01T11:13:17.811Z,22.30
2019-05-01T11:15:47.993Z,22.30
2019-05-01T11:18:13.637Z,22.30
2019-05-01T11:20:40.685Z,22.20
2019-05-01T11:23:07.868Z,22.30
2019-05-01T11:25:34.932Z,22.30
2019-05-01T11:28:02.011Z,22.20
2019-05-01T11:30:29.124Z,22.20
2019-05-01T11:32:56.235Z,22.30
2019-05-01T11:35:23.478Z,22.30
2019-05-01T11:37:50.752Z,22.30
2019-05-01T11:40:17.927Z,22.30
2019-05-01T11:42:45.213Z,22.30
2019-05-01T11:45:12.330Z,22.30
2019-05-01T11:47:39.533Z,22.30
2019-05-01T11:50:06.673Z,22.30
2019-05-01T11:52:34.027Z,22.30
2019-05-01T11:55:01.162Z,22.30
2019-05-01T11:57:28.320Z,22.30
2019-05-01T11:59:55.371Z,22.20
2019-05-01T12:02:23.497Z,22.20
2019-05-01T12:04:54.313Z,22.20
2019-05-01T12:07:21.415Z,22.20
2019-05-01T12:09:48.558Z,22.20
2019-05-01T12:12:15.783Z,22.20
2019-05-01T12:14:42.871Z,22.20
2019-05-01T12:17:09.952Z,22.20
2019-05-01T12:19:37.026Z,22.20
2019-05-01T12:22:04.172Z,22.20
2019-05-01T12:24:31.264Z,22.20
2019-05-01T12:26:58.310Z,22.10
2019-05-01T12:29:25.368Z,22.10
2019-05-01T12:31:52.568Z,22.10
2019-05-01T12:34:19.625Z,22.10
2019-05-01T12:36:46.736Z,22.10
2019-05-01T12:39:13.829Z,22.10
2019-05-01T12:41:40.955Z,22.10
2019-05-01T12:44:08.005Z,22.10
2019-05-01T12:46:40.580Z,22.10
2019-05-01T12:49:04.303Z,22.10
2019-05-01T12:51:31.341Z,22.10
2019-05-01T12:53:58.380Z,22.10
2019-05-01T12:56:25.512Z,22.10
2019-05-01T12:58:52.587Z,22.10
2019-05-01T13:01:19.644Z,22.10
2019-05-01T13:03:46.849Z,22.10
2019-05-01T13:06:14.512Z,22.10
2019-05-01T13:08:41.863Z,22.10
2019-05-01T13:11:08.903Z,22.00
2019-05-01T13:13:36.007Z,22.00
2019-05-01T13:16:03.184Z,22.00
2019-05-01T13:18:30.245Z,22.00
2019-05-01T13:20:57.380Z,22.00
2019-05-01T13:23:24.502Z,22.00
2019-05-01T13:25:54.800Z,22.00
2019-05-01T13:28:21.956Z,22.00
2019-05-01T13:30:50.367Z,21.90
2019-05-01T13:33:17.469Z,22.00
2019-05-01T13:35:44.559Z,22.00
2019-05-01T13:38:11.632Z,22.00
2019-05-01T13:40:47.950Z,22.00
2019-05-01T13:43:15.055Z,22.00
2019-05-01T13:45:42.117Z,22.00
2019-05-01T13:48:09.275Z,22.00
2019-05-01T13:50:36.365Z,22.00
2019-05-01T13:53:03.568Z,21.90
2019-05-01T13:55:30.636Z,21.90
2019-05-01T13:57:57.729Z,21.90
2019-05-01T14:00:24.774Z,21.90
2019-05-01T14:02:51.993Z,21.90
2019-05-01T14:05:19.040Z,21.90
2019-05-01T14:07:46.140Z,21.90
2019-05-01T14:10:13.194Z,21.90
2019-05-01T14:12:40.318Z,21.90
2019-05-01T14:15:07.451Z,21.90
2019-05-01T14:17:34.617Z,21.90
2019-05-01T14:20:01.713Z,21.90
2019-05-01T14:22:28.974Z,21.90
2019-05-01T14:24:56.022Z,21.90
2019-05-01T14:27:23.102Z,21.90
2019-05-01T14:29:50.247Z,21.90
2019-05-01T14:32:19.712Z,21.90
2019-05-01T14:34:46.721Z,21.90
2019-05-01T14:37:13.801Z,21.90
2019-05-01T14:39:40.863Z,21.90
2019-05-01T14:42:08.027Z,21.90
2019-05-01T14:44:36.958Z,21.90
2019-05-01T14:47:04.058Z,21.90
2019-05-01T14:49:31.119Z,21.90
2019-05-01T14:51:58.175Z,21.90
2019-05-01T14:54:25.301Z,21.90
2019-05-01T14:56:52.352Z,21.90
2019-05-01T14:59:19.498Z,21.90
2019-05-01T15:01:47.342Z,21.90
2019-05-01T15:04:14.706Z,21.80
2019-05-01T15:06:41.787Z,21.90
2019-05-01T15:09:08.857Z,21.90
2019-05-01T15:11:36.082Z,21.90
2019-05-01T15:14:03.128Z,21.90
2019-05-01T15:16:30.220Z,21.90
2019-05-01T15:18:57.447Z,21.90
2019-05-01T15:21:26.240Z,21.90
2019-05-01T15:23:53.991Z,21.80
2019-05-01T15:26:21.186Z,21.90
2019-05-01T15:28:48.263Z,21.90
2019-05-01T15:31:15.314Z,21.90
2019-05-01T15:33:42.590Z,21.90
2019-05-01T15:36:09.665Z,21.90
2019-05-01T15:38:36.755Z,21.90
2019-05-01T15:41:03.925Z,21.90
2019-05-01T15:43:30.988Z,21.80
2019-05-01T15:45:58.207Z,21.80
2019-05-01T15:48:25.253Z,21.80
2019-05-01T15:50:52.371Z,21.80
2019-05-01T15:53:19.523Z,21.80
2019-05-01T15:55:46.682Z,21.80
2019-05-01T15:58:13.784Z,21.80
2019-05-01T16:00:40.885Z,21.80
2019-05-01T16:03:07.928Z,21.80
2019-05-01T16:05:35.038Z,21.80
2019-05-01T16:08:09.493Z,21.80
2019-05-01T16:10:31.019Z,21.80
2019-05-01T16:12:58.103Z,21.80
2019-05-01T16:15:25.194Z,21.80
2019-05-01T16:17:52.320Z,21.80
2019-05-01T16:20:19.486Z,21.80
2019-05-01T16:22:46.657Z,21.80
2019-05-01T16:25:13.755Z,21.80
2019-05-01T16:27:40.838Z,21.80
2019-05-01T16:30:07.942Z,21.80
2019-05-01T16:32:35.048Z,21.80
2019-05-01T16:35:02.244Z,21.80
2019-05-01T16:37:29.365Z,21.80
2019-05-01T16:39:56.498Z,21.80
2019-05-01T16:42:23.804Z,21.80
2019-05-01T16:44:50.861Z,21.80
2019-05-01T16:47:18.388Z,21.80
2019-05-01T16:49:45.495Z,21.80
2019-05-01T16:52:12.601Z,21.80
2019-05-01T16:54:39.682Z,21.80
2019-05-01T16:57:06.775Z,21.80
2019-05-01T16:59:33.831Z,21.80
2019-05-01T17:02:00.994Z,21.80
2019-05-01T17:04:28.095Z,21.80
2019-05-01T17:06:55.234Z,21.80
2019-05-01T17:09:22.313Z,21.80
2019-05-01T17:11:49.697Z,21.80
2019-05-01T17:14:16.734Z,21.80
2019-05-01T17:16:43.811Z,21.80
2019-05-01T17:19:10.894Z,21.80
2019-05-01T17:21:38.003Z,21.80
2019-05-01T17:24:05.043Z,21.80
2019-05-01T17:26:32.108Z,21.80
2019-05-01T17:28:59.211Z,21.80
2019-05-01T17:31:26.419Z,21.80
2019-05-01T17:33:55.530Z,21.80
2019-05-01T17:36:22.444Z,21.80
2019-05-01T17:38:50.112Z,21.80
2019-05-01T17:41:17.400Z,21.70
2019-05-01T17:43:48.973Z,21.70
2019-05-01T17:46:13.652Z,21.70
2019-05-01T17:48:40.812Z,21.70
2019-05-01T17:51:08.092Z,21.70
2019-05-01T17:53:35.655Z,21.70
2019-05-01T17:56:02.735Z,21.70
2019-05-01T17:58:29.885Z,21.70
2019-05-01T18:00:56.991Z,21.80
2019-05-01T18:03:24.216Z,21.80
2019-05-01T18:05:51.322Z,21.80
2019-05-01T18:08:18.450Z,21.80
2019-05-01T18:10:45.702Z,21.80
2019-05-01T18:13:12.764Z,21.80
2019-05-01T18:15:39.914Z,21.80
2019-05-01T18:18:10.799Z,21.80
2019-05-01T18:20:35.765Z,21.70
2019-05-01T18:23:03.069Z,21.80
2019-05-01T18:25:33.119Z,21.80
2019-05-01T18:27:59.208Z,21.80
2019-05-01T18:30:26.317Z,21.80
2019-05-01T18:32:53.478Z,21.80
2019-05-01T18:35:20.693Z,21.80
2019-05-01T18:37:47.756Z,21.80
2019-05-01T18:40:14.864Z,21.80
2019-05-01T18:42:42.056Z,21.80
2019-05-01T18:45:09.676Z,21.80
2019-05-01T18:47:37.050Z,21.80
2019-05-01T18:50:04.112Z,21.80
2019-05-01T18:52:31.202Z,21.70
2019-05-01T18:54:58.286Z,21.70
2019-05-01T18:57:25.368Z,21.70
2019-05-01T18:59:52.463Z,21.80
2019-05-01T19:02:20.607Z,21.70
2019-05-01T19:04:48.755Z,21.70
2019-05-01T19:07:15.834Z,21.70
2019-05-01T19:09:43.040Z,21.70
2019-05-01T19:12:10.321Z,21.70
2019-05-01T19:14:37.447Z,21.60
2019-05-01T19:17:04.711Z,21.60
2019-05-01T19:19:31.779Z,21.60
2019-05-01T19:22:11.193Z,21.60
2019-05-01T19:24:44.619Z,21.60
2019-05-01T19:27:14.196Z,21.60
2019-05-01T19:29:40.520Z,21.60
2019-05-01T19:32:07.714Z,21.60
2019-05-01T19:34:35.157Z,21.60
2019-05-01T19:37:02.324Z,21.60
2019-05-01T19:39:43.067Z,21.60
2019-05-01T19:41:59.234Z,21.60
2019-05-01T19:44:26.543Z,21.60
2019-05-01T19:46:53.661Z,21.60
2019-05-01T19:49:24.728Z,21.60
2019-05-01T19:51:49.495Z,21.60
2019-05-01T19:54:17.762Z,21.60
2019-05-01T19:56:44.872Z,21.60
2019-05-01T19:59:11.955Z,21.60
2019-05-01T20:01:44.430Z,21.60
2019-05-01T20:04:08.577Z,21.70
2019-05-01T20:06:38.640Z,21.70
2019-05-01T20:09:05.558Z,21.80
2019-05-01T20:11:32.830Z,21.80
2019-05-01T20:13:59.904Z,21.70
2019-05-01T20:16:26.954Z,21.70
2019-05-01T20:19:04.795Z,21.70
2019-05-01T20:21:35.324Z,21.70
2019-05-01T20:24:04.354Z,21.70
2019-05-01T20:26:32.058Z,21.70
2019-05-01T20:29:00.513Z,21.70
2019-05-01T20:31:30.681Z,21.70
2019-05-01T20:33:56.587Z,21.70
2019-05-01T20:36:23.720Z,21.70
2019-05-01T20:38:50.802Z,21.60
2019-05-01T20:41:18.156Z,21.60
2019-05-01T20:43:45.487Z,21.60
2019-05-01T20:46:12.790Z,21.60
2019-05-01T20:48:39.835Z,21.60
2019-05-01T20:51:07.095Z,21.60
2019-05-01T20:53:34.152Z,21.60
2019-05-01T20:56:01.253Z,21.60
2019-05-01T20:58:28.323Z,21.60
2019-05-01T21:00:55.430Z,21.60
2019-05-01T21:03:22.784Z,21.60
2019-05-01T21:05:55.411Z,21.50
2019-05-01T21:11:13.406Z,21.50
2019-05-01T21:13:42.469Z,21.50
2019-05-01T21:16:09.836Z,21.50
2019-05-01T21:18:38.892Z,21.50
2019-05-01T21:21:06.007Z,21.60
2019-05-01T21:23:33.521Z,21.60
2019-05-01T21:31:34.116Z,21.60
2019-05-01T21:34:08.587Z,21.60
2019-05-01T21:36:35.700Z,21.60
2019-05-01T21:39:03.020Z,21.60
2019-05-01T21:41:30.363Z,21.60
2019-05-01T21:43:59.407Z,21.60
2019-05-01T21:46:26.951Z,21.70
2019-05-01T21:51:48.198Z,21.70
2019-05-01T21:54:22.023Z,21.70
2019-05-01T21:56:52.121Z,21.70
2019-05-01T21:59:19.583Z,21.70
2019-05-01T22:02:34.147Z,21.70
2019-05-01T22:04:33.822Z,21.70
2019-05-01T22:07:01.041Z,21.70
2019-05-01T22:09:28.250Z,21.70
2019-05-01T22:11:58.322Z,21.70
2019-05-01T22:14:25.882Z,21.70
2019-05-01T22:16:56.599Z,21.70
2019-05-01T22:19:43.304Z,21.70
2019-05-01T22:22:11.751Z,21.70
2019-05-01T22:24:38.829Z,21.80
2019-05-01T22:27:06.360Z,21.80
2019-05-01T22:29:52.462Z,21.70
2019-05-01T22:32:37.917Z,21.70
2019-05-01T22:35:18.803Z,21.70
2019-05-01T22:41:04.711Z,21.70
2019-05-01T22:46:14.546Z,21.70
2019-05-01T22:48:41.616Z,21.70
2019-05-01T22:51:11.733Z,21.70
2019-05-01T22:53:39.207Z,21.70
2019-05-01T22:56:06.595Z,21.70
2019-05-01T23:01:29.427Z,21.70
2019-05-01T23:03:59.834Z,21.70
2019-05-01T23:06:27.113Z,21.70
2019-05-01T23:08:54.434Z,21.60
2019-05-01T23:11:21.900Z,21.70
2019-05-01T23:13:49.404Z,21.60
2019-05-01T23:16:16.733Z,21.60
2019-05-01T23:18:47.038Z,21.60
2019-05-01T23:21:14.579Z,21.70
2019-05-01T23:23:56.675Z,21.70
2019-05-01T23:26:16.812Z,21.70
2019-05-01T23:28:42.720Z,21.70
2019-05-01T23:31:11.821Z,21.70
2019-05-01T23:33:39.071Z,21.70
2019-05-01T23:36:22.667Z,21.70
2019-05-01T23:38:52.114Z,21.70
2019-05-01T23:41:24.842Z,21.70
2019-05-01T23:46:39.264Z,21.70
2019-05-01T23:52:22.125Z,21.80
2019-05-01T23:54:57.063Z,21.80
2019-05-01T23:57:25.372Z,21.70
